Time;durP1;ratioP1;P1;durP2;ratioP2;P2;SDS_P1;SDS_P2;PMS_P1;PMS_P2;Temp;Humidity;BMP_temperature;BMP_pressure;BME280_temperature;BME280_humidity;BME280_pressure;Samples;Min_cycle;Max_cycle;Signal;HPM_P1;HPM_P2
2021/06/04 00:00:41;;;;;;;16.10;14.40;;;20.40;1.00;;;;;;4996361;28;20231;-78
2021/06/04 00:03:10;;;;;;;17.00;14.17;;;20.20;1.00;;;;;;5005388;28;20181;-77
2021/06/04 00:05:39;;;;;;;21.33;15.83;;;20.10;1.00;;;;;;4995646;28;20177;-79
2021/06/04 00:08:05;;;;;;;20.23;15.83;;;20.10;1.00;;;;;;4993880;28;20570;-79
2021/06/04 00:10:35;;;;;;;22.00;16.50;;;20.00;1.00;;;;;;4994942;28;20215;-79
2021/06/04 00:13:38;;;;;;;24.47;16.57;;;19.90;1.00;;;;;;4994770;28;20214;-80
2021/06/04 00:16:20;;;;;;;24.13;17.53;;;19.80;1.00;;;;;;4994846;28;20629;-78
2021/06/04 00:18:47;;;;;;;24.83;17.50;;;19.80;1.00;;;;;;4994663;28;20163;-79
2021/06/04 00:21:19;;;;;;;21.50;15.83;;;19.90;1.00;;;;;;4994587;28;20156;-79
2021/06/04 00:23:46;;;;;;;24.60;16.30;;;19.80;1.00;;;;;;4994905;28;20168;-78
2021/06/04 00:26:13;;;;;;;19.97;15.87;;;19.90;1.00;;;;;;4994686;28;20176;-79
2021/06/04 00:28:39;;;;;;;17.40;14.07;;;20.10;1.00;;;;;;4994196;28;20195;-79
2021/06/04 00:31:05;;;;;;;15.93;13.80;;;20.20;1.00;;;;;;4994277;28;20181;-78
2021/06/04 00:33:32;;;;;;;17.73;14.20;;;20.40;1.00;;;;;;4996207;28;20583;-79
2021/06/04 00:35:58;;;;;;;17.43;12.70;;;20.40;1.00;;;;;;5002322;28;20176;-79
2021/06/04 00:38:23;;;;;;;18.03;12.83;;;20.30;1.00;;;;;;4995571;28;20264;-78
2021/06/04 00:40:53;;;;;;;18.43;13.23;;;20.20;1.00;;;;;;4992901;28;20216;-79
2021/06/04 00:43:21;;;;;;;17.53;12.97;;;20.20;1.00;;;;;;4992505;28;20532;-79
2021/06/04 00:45:49;;;;;;;14.87;11.97;;;20.20;1.00;;;;;;4994301;28;20628;-78
2021/06/04 00:48:16;;;;;;;17.23;12.90;;;20.10;1.00;;;;;;4993953;28;20636;-79
2021/06/04 00:50:47;;;;;;;14.70;12.60;;;20.10;1.00;;;;;;4992572;28;20267;-80
2021/06/04 00:53:14;;;;;;;16.83;12.73;;;20.10;1.00;;;;;;4993933;28;20175;-78
2021/06/04 00:55:41;;;;;;;16.30;12.60;;;19.90;1.00;;;;;;4992013;28;20182;-78
2021/06/04 00:58:07;;;;;;;16.17;12.20;;;19.90;1.00;;;;;;4993087;28;20209;-79
2021/06/04 01:00:43;;;;;;;16.07;12.00;;;19.80;1.00;;;;;;5004152;28;20644;-79
2021/06/04 01:03:12;;;;;;;16.17;11.87;;;19.80;1.00;;;;;;5000057;28;20195;-79
2021/06/04 01:05:41;;;;;;;17.17;12.83;;;19.70;1.00;;;;;;4993793;28;20277;-79
2021/06/04 01:08:41;;;;;;;16.13;12.37;;;19.80;1.00;;;;;;4993561;28;20178;-79
2021/06/04 01:11:34;;;;;;;15.27;12.17;;;19.70;1.00;;;;;;4993962;28;20181;-79
2021/06/04 01:14:26;;;;;;;16.43;12.03;;;19.60;1.00;;;;;;4994078;28;20171;-76
2021/06/04 01:17:12;;;;;;;20.77;12.60;;;19.60;1.00;;;;;;4994114;28;20631;-79
2021/06/04 01:20:01;;;;;;;18.17;12.23;;;19.50;1.00;;;;;;4992174;28;20183;-79
2021/06/04 01:22:49;;;;;;;18.10;12.77;;;19.50;1.00;;;;;;4992537;28;20211;-79
2021/06/04 01:25:31;;;;;;;21.13;13.50;;;19.40;1.00;;;;;;4993509;28;20248;-78
2021/06/04 01:27:59;;;;;;;19.80;13.53;;;19.40;1.00;;;;;;4993554;28;20267;-78
2021/06/04 01:30:31;;;;;;;21.00;14.80;;;19.50;1.00;;;;;;4993335;28;20224;-78
2021/06/04 01:33:06;;;;;;;23.37;15.07;;;19.50;1.00;;;;;;4993268;28;20190;-78
2021/06/04 01:35:41;;;;;;;19.17;14.97;;;19.50;1.00;;;;;;4993476;28;20537;-78
2021/06/04 01:38:08;;;;;;;21.07;14.80;;;19.50;1.00;;;;;;4993535;28;20206;-79
2021/06/04 01:40:41;;;;;;;22.63;14.77;;;19.40;1.00;;;;;;4993347;28;20638;-78
2021/06/04 01:43:12;;;;;;;22.20;15.90;;;19.50;1.00;;;;;;4993535;28;20186;-78
2021/06/04 01:45:44;;;;;;;19.77;15.00;;;19.40;1.00;;;;;;4992055;28;20179;-77
2021/06/04 01:48:16;;;;;;;20.07;15.03;;;19.40;1.00;;;;;;4993070;28;20182;-77
2021/06/04 01:50:49;;;;;;;18.40;15.23;;;19.40;1.00;;;;;;4993409;28;20179;-78
2021/06/04 01:53:19;;;;;;;22.87;15.20;;;19.40;1.00;;;;;;4993382;28;20290;-78
2021/06/04 01:55:50;;;;;;;19.87;16.17;;;19.50;1.00;;;;;;4993421;28;20180;-77
2021/06/04 01:58:21;;;;;;;19.30;12.23;;;19.50;1.00;;;;;;4991883;28;20270;-78
2021/06/04 02:01:18;;;;;;;19.13;13.47;;;19.50;1.00;;;;;;4993151;28;20650;-78
2021/06/04 02:03:45;;;;;;;17.40;13.27;;;19.60;1.00;;;;;;4978876;28;20194;-78
2021/06/04 02:06:11;;;;;;;16.53;12.63;;;19.70;1.00;;;;;;4993242;28;20274;-78
2021/06/04 02:08:43;;;;;;;16.17;12.60;;;19.80;1.00;;;;;;4995520;28;20218;-79
2021/06/04 02:11:11;;;;;;;16.10;12.47;;;19.80;1.00;;;;;;4996762;28;20196;-78
2021/06/04 02:13:41;;;;;;;17.90;12.53;;;19.70;1.00;;;;;;4997069;28;20194;-78
2021/06/04 02:16:22;;;;;;;17.43;11.07;;;19.60;1.00;;;;;;4995143;28;20173;-79
2021/06/04 02:19:01;;;;;;;12.97;9.73;;;19.70;1.00;;;;;;4996922;28;20168;-78
2021/06/04 02:21:35;;;;;;;14.93;9.27;;;19.60;1.00;;;;;;4996533;28;20171;-78
2021/06/04 02:24:17;;;;;;;13.17;9.50;;;19.60;1.00;;;;;;4996732;28;20171;-78
2021/06/04 02:27:00;;;;;;;12.00;9.00;;;19.60;1.00;;;;;;4995365;28;20656;-79
2021/06/04 02:29:48;;;;;;;11.97;8.30;;;19.70;1.00;;;;;;4996843;28;20209;-78
2021/06/04 02:32:33;;;;;;;12.30;7.50;;;19.80;1.00;;;;;;5011610;28;20174;-78
2021/06/04 02:35:13;;;;;;;11.60;7.73;;;19.70;1.00;;;;;;4997690;28;20239;-78
2021/06/04 02:37:47;;;;;;;9.53;7.17;;;19.70;1.00;;;;;;5001515;28;20231;-78
2021/06/04 02:40:30;;;;;;;10.80;7.40;;;19.60;1.00;;;;;;5001351;28;20621;-78
2021/06/04 02:43:22;;;;;;;9.77;7.23;;;19.60;1.00;;;;;;4996502;28;20171;-78
2021/06/04 02:46:20;;;;;;;11.57;7.27;;;19.50;1.00;;;;;;4994525;28;20225;-79
2021/06/04 02:48:49;;;;;;;12.17;9.40;;;19.50;1.00;;;;;;4995839;28;20691;-78
2021/06/04 02:51:32;;;;;;;15.37;12.77;;;19.50;1.00;;;;;;4996174;28;20176;-78
2021/06/04 02:54:03;;;;;;;21.20;14.33;;;19.50;1.00;;;;;;4995256;28;20193;-78
2021/06/04 02:56:36;;;;;;;19.93;14.77;;;19.50;1.00;;;;;;4997169;28;20255;-78
2021/06/04 02:59:08;;;;;;;17.60;12.70;;;19.40;1.00;;;;;;5012270;28;20175;-76
2021/06/04 03:01:37;;;;;;;19.97;15.07;;;19.50;1.00;;;;;;5018295;28;20170;-78
2021/06/04 03:04:04;;;;;;;19.57;15.67;;;19.50;1.00;;;;;;4999083;28;20183;-79
2021/06/04 03:06:36;;;;;;;20.67;15.50;;;19.60;1.00;;;;;;4997175;28;20175;-79
2021/06/04 03:09:07;;;;;;;23.23;16.07;;;19.60;1.00;;;;;;4996041;28;20200;-78
2021/06/04 03:11:33;;;;;;;17.77;14.93;;;19.60;1.00;;;;;;4996117;28;20183;-79
2021/06/04 03:14:05;;;;;;;18.93;14.90;;;19.70;1.00;;;;;;5010712;28;20243;-79
2021/06/04 03:16:31;;;;;;;24.43;15.27;;;19.80;1.00;;;;;;4995763;28;20184;-79
2021/06/04 03:19:02;;;;;;;19.77;14.97;;;19.80;1.00;;;;;;4994958;28;20181;-77
2021/06/04 03:21:39;;;;;;;19.63;16.17;;;19.70;1.00;;;;;;4995346;28;20215;-78
2021/06/04 03:24:08;;;;;;;18.77;15.17;;;19.40;1.00;;;;;;4995825;28;20614;-79
2021/06/04 03:26:34;;;;;;;21.67;14.77;;;19.30;1.00;;;;;;4995481;28;20263;-78
2021/06/04 03:29:05;;;;;;;21.17;15.40;;;19.40;1.00;;;;;;4995521;28;20673;-79
2021/06/04 03:31:33;;;;;;;18.40;14.90;;;19.30;1.00;;;;;;4995373;28;20207;-79
2021/06/04 03:33:59;;;;;;;22.33;15.70;;;19.20;1.00;;;;;;4995810;28;20175;-79
2021/06/04 03:36:28;;;;;;;20.27;15.67;;;19.20;1.00;;;;;;4995426;28;20197;-80
2021/06/04 03:38:55;;;;;;;18.83;14.87;;;19.40;1.00;;;;;;4995723;28;20184;-79
2021/06/04 03:41:33;;;;;;;20.83;15.33;;;19.50;1.00;;;;;;4994264;28;20720;-79
2021/06/04 03:44:01;;;;;;;20.07;14.83;;;19.50;1.00;;;;;;4995237;28;20173;-79
2021/06/04 03:46:26;;;;;;;22.47;15.30;;;19.50;1.00;;;;;;4995305;28;20203;-78
2021/06/04 03:48:53;;;;;;;18.70;15.37;;;19.40;1.00;;;;;;4995016;28;20601;-79
2021/06/04 03:51:24;;;;;;;21.00;15.43;;;19.40;1.00;;;;;;4995112;28;20165;-78
2021/06/04 03:53:50;;;;;;;26.40;17.37;;;19.40;1.00;;;;;;4995377;28;20175;-79
2021/06/04 03:56:17;;;;;;;20.47;16.23;;;19.40;1.00;;;;;;4995046;28;20682;-78
2021/06/04 03:58:43;;;;;;;23.67;18.13;;;19.40;1.00;;;;;;4995180;28;20177;-79
2021/06/04 04:01:16;;;;;;;22.67;18.07;;;19.50;1.00;;;;;;4995964;28;20173;-77
2021/06/04 04:03:43;;;;;;;25.60;18.27;;;19.50;1.00;;;;;;4997015;28;20168;-79
2021/06/04 04:06:09;;;;;;;22.00;17.77;;;19.50;1.00;;;;;;4998411;28;20195;-78
2021/06/04 04:08:35;;;;;;;20.87;16.20;;;19.40;1.00;;;;;;4999535;28;20218;-78
2021/06/04 04:11:02;;;;;;;22.37;16.63;;;19.30;1.00;;;;;;4997571;28;20537;-77
2021/06/04 04:13:28;;;;;;;23.03;16.33;;;19.10;1.00;;;;;;4997884;28;20183;-78
2021/06/04 04:15:56;;;;;;;25.30;15.30;;;19.20;1.00;;;;;;4996847;28;20176;-77
2021/06/04 04:18:22;;;;;;;22.40;14.43;;;19.20;1.00;;;;;;4997735;28;20173;-78
2021/06/04 04:20:57;;;;;;;22.07;14.37;;;19.30;1.00;;;;;;4996514;28;20176;-79
2021/06/04 04:23:30;;;;;;;21.13;14.33;;;19.40;1.00;;;;;;4994447;28;20687;-77
2021/06/04 04:25:56;;;;;;;19.70;13.43;;;19.30;1.00;;;;;;4994798;28;20645;-80
2021/06/04 04:28:27;;;;;;;21.33;13.10;;;19.20;1.00;;;;;;4994470;28;20179;-78
2021/06/04 04:30:55;;;;;;;21.40;13.13;;;19.20;1.00;;;;;;4994840;28;20258;-78
2021/06/04 04:33:21;;;;;;;18.77;12.37;;;19.20;1.00;;;;;;4994819;28;20250;-78
2021/06/04 04:35:47;;;;;;;20.07;13.03;;;19.30;1.00;;;;;;4993616;28;20176;-79
2021/06/04 04:38:17;;;;;;;20.20;13.20;;;19.50;1.00;;;;;;5010267;28;20178;-79
2021/06/04 04:40:43;;;;;;;22.13;13.53;;;19.60;1.00;;;;;;4994322;28;20168;-78
2021/06/04 04:43:09;;;;;;;22.83;13.93;;;19.70;1.00;;;;;;5013907;28;20200;-78
2021/06/04 04:45:36;;;;;;;20.23;14.00;;;19.80;1.00;;;;;;4995336;28;20191;-78
2021/06/04 04:48:02;;;;;;;21.23;14.57;;;20.00;1.00;;;;;;5001292;28;20175;-78
2021/06/04 04:50:29;;;;;;;21.03;13.80;;;20.10;1.00;;;;;;4994123;28;20234;-79
2021/06/04 04:52:55;;;;;;;20.77;13.97;;;20.10;1.00;;;;;;4994011;28;20229;-79
2021/06/04 04:55:23;;;;;;;25.70;14.73;;;20.10;1.00;;;;;;4994436;28;20256;-79
2021/06/04 04:57:48;;;;;;;22.57;14.27;;;20.00;1.00;;;;;;4993831;28;20184;-79
2021/06/04 05:00:19;;;;;;;24.53;13.37;;;20.10;1.00;;;;;;4994236;28;20532;-79
2021/06/04 05:02:45;;;;;;;22.83;12.73;;;20.20;1.00;;;;;;4994418;28;20180;-79
2021/06/04 05:05:12;;;;;;;16.27;11.87;;;20.30;1.00;;;;;;4994268;28;20174;-79
2021/06/04 05:07:37;;;;;;;19.60;13.03;;;20.40;1.00;;;;;;4994334;28;20177;-79
2021/06/04 05:10:05;;;;;;;19.80;12.87;;;20.30;1.00;;;;;;4993389;28;20268;-79
2021/06/04 05:12:31;;;;;;;19.43;13.37;;;20.30;1.00;;;;;;4994207;28;20163;-78
2021/06/04 05:14:56;;;;;;;17.33;13.07;;;20.20;1.00;;;;;;4992660;28;20185;-79
2021/06/04 05:17:22;;;;;;;18.27;12.63;;;20.20;1.00;;;;;;4994682;28;20172;-78
2021/06/04 05:19:48;;;;;;;18.57;12.60;;;20.20;1.00;;;;;;4993255;28;20171;-78
2021/06/04 05:22:15;;;;;;;20.67;13.10;;;20.30;1.00;;;;;;4994390;28;20176;-78
2021/06/04 05:24:40;;;;;;;20.00;13.97;;;20.20;1.00;;;;;;4994374;28;20565;-80
2021/06/04 05:27:07;;;;;;;18.27;13.43;;;20.10;1.00;;;;;;4994502;28;20218;-79
2021/06/04 05:29:33;;;;;;;21.53;13.57;;;20.30;1.00;;;;;;4995520;28;20630;-77
2021/06/04 05:31:59;;;;;;;22.23;13.73;;;20.20;1.00;;;;;;4994727;28;20175;-77
2021/06/04 05:34:25;;;;;;;24.70;14.57;;;20.30;1.00;;;;;;5008758;28;20182;-79
2021/06/04 05:36:51;;;;;;;20.17;13.57;;;20.20;1.00;;;;;;4996023;28;20694;-79
2021/06/04 05:39:21;;;;;;;21.27;13.57;;;20.20;1.00;;;;;;4995177;28;20217;-79
2021/06/04 05:41:50;;;;;;;21.33;13.37;;;20.10;1.00;;;;;;4995087;28;20182;-79
2021/06/04 05:44:24;;;;;;;21.87;13.50;;;20.10;1.00;;;;;;4998992;28;20250;-79
2021/06/04 05:46:52;;;;;;;20.33;12.87;;;20.20;1.00;;;;;;5002650;28;20241;-79
2021/06/04 05:49:19;;;;;;;21.30;13.47;;;20.30;1.00;;;;;;4999699;28;20213;-79
2021/06/04 05:51:46;;;;;;;24.53;13.73;;;20.20;1.00;;;;;;4998945;28;20174;-80
2021/06/04 05:54:12;;;;;;;22.83;14.37;;;20.10;1.00;;;;;;5002804;28;20188;-80
2021/06/04 05:56:37;;;;;;;23.60;13.90;;;20.30;1.00;;;;;;5001243;28;20668;-79
2021/06/04 05:59:04;;;;;;;23.30;14.27;;;20.10;1.00;;;;;;4997047;28;20193;-80
2021/06/04 06:01:33;;;;;;;21.27;13.63;;;20.20;1.00;;;;;;4996575;28;20189;-80
2021/06/04 06:03:58;;;;;;;22.80;14.13;;;20.10;1.00;;;;;;4996404;28;20177;-80
2021/06/04 06:06:24;;;;;;;22.23;14.23;;;20.10;1.00;;;;;;4996402;28;20554;-79
2021/06/04 06:08:50;;;;;;;21.20;14.97;;;20.10;1.00;;;;;;4996575;28;20204;-79
2021/06/04 06:11:22;;;;;;;22.43;14.90;;;20.00;1.00;;;;;;4996578;28;20165;-79
2021/06/04 06:14:07;;;;;;;25.37;16.30;;;20.10;1.00;;;;;;4996021;28;20187;-78
2021/06/04 06:16:33;;;;;;;26.90;15.80;;;20.10;1.00;;;;;;4995672;28;20871;-79
2021/06/04 06:18:59;;;;;;;20.63;14.10;;;20.30;1.00;;;;;;4996830;28;20178;-78
2021/06/04 06:21:26;;;;;;;24.00;15.53;;;20.40;1.00;;;;;;4997597;28;20170;-77
2021/06/04 06:23:52;;;;;;;24.50;14.97;;;20.40;1.00;;;;;;4996087;28;20199;-79
2021/06/04 06:26:23;;;;;;;23.13;15.73;;;20.10;1.00;;;;;;4995850;28;20255;-79
2021/06/04 06:28:51;;;;;;;27.20;16.40;;;20.20;1.00;;;;;;4996110;28;20203;-80
2021/06/04 06:31:22;;;;;;;24.67;16.37;;;20.20;1.00;;;;;;4997223;28;20217;-79
2021/06/04 06:33:50;;;;;;;27.30;16.27;;;20.30;1.00;;;;;;4995781;28;20184;-79
2021/06/04 06:36:19;;;;;;;26.13;17.27;;;20.20;1.00;;;;;;4995907;28;20198;-78
2021/06/04 06:38:48;;;;;;;27.20;17.00;;;20.10;1.00;;;;;;4994823;28;20189;-78
2021/06/04 06:41:15;;;;;;;28.77;18.20;;;20.10;1.00;;;;;;4996502;28;20224;-79
2021/06/04 06:43:44;;;;;;;29.03;18.23;;;20.10;1.00;;;;;;4995370;28;20179;-78
2021/06/04 06:46:10;;;;;;;29.47;18.27;;;20.20;1.00;;;;;;4995477;28;20633;-80
2021/06/04 06:48:36;;;;;;;27.10;19.20;;;20.40;1.00;;;;;;4996005;28;20196;-78
2021/06/04 06:51:03;;;;;;;26.17;17.63;;;20.50;1.00;;;;;;4994728;28;20176;-78
2021/06/04 06:53:29;;;;;;;29.53;17.90;;;20.50;1.00;;;;;;4994692;28;20169;-79
2021/06/04 06:55:57;;;;;;;24.57;18.03;;;20.60;1.00;;;;;;4997068;28;20538;-79
2021/06/04 06:58:24;;;;;;;26.80;16.87;;;20.50;1.00;;;;;;4999456;28;20211;-78
2021/06/04 07:00:52;;;;;;;27.23;17.33;;;20.70;1.00;;;;;;4997130;28;20631;-79
2021/06/04 07:03:23;;;;;;;26.20;17.03;;;20.80;1.00;;;;;;4996710;28;20214;-80
2021/06/04 07:05:51;;;;;;;29.00;17.10;;;21.00;1.00;;;;;;4999199;28;20177;-76
2021/06/04 07:08:17;;;;;;;27.50;17.70;;;21.20;1.00;;;;;;4980802;28;20293;-81
2021/06/04 07:10:43;;;;;;;27.00;18.13;;;21.10;1.00;;;;;;4998578;28;20251;-80
2021/06/04 07:13:11;;;;;;;23.90;17.33;;;21.20;1.00;;;;;;5000572;28;20648;-79
2021/06/04 07:15:37;;;;;;;29.90;17.60;;;21.40;1.00;;;;;;4998919;28;20159;-79
2021/06/04 07:18:03;;;;;;;24.47;16.13;;;21.40;1.00;;;;;;4997630;28;20262;-81
2021/06/04 07:20:31;;;;;;;22.90;15.77;;;21.50;1.00;;;;;;4996312;28;20202;-80
2021/06/04 07:22:58;;;;;;;20.67;15.40;;;21.50;1.00;;;;;;4996334;28;20607;-80
2021/06/04 07:25:36;;;;;;;23.53;14.87;;;21.60;1.00;;;;;;4994441;28;20186;-80
2021/06/04 07:28:03;;;;;;;26.80;15.20;;;21.80;1.00;;;;;;4995078;28;20203;-79
2021/06/04 07:30:33;;;;;;;22.07;14.70;;;21.80;1.00;;;;;;4991487;28;20737;-79
2021/06/04 07:33:02;;;;;;;19.63;13.13;;;21.90;99.90;;;;;;4994403;28;20174;-79
2021/06/04 07:35:31;;;;;;;23.07;14.93;;;21.90;99.90;;;;;;4994388;28;20244;-80
2021/06/04 07:37:57;;;;;;;19.57;13.07;;;21.90;99.90;;;;;;4996499;28;20191;-79
2021/06/04 07:40:26;;;;;;;17.60;12.30;;;21.90;99.90;;;;;;4994805;28;20175;-77
2021/06/04 07:42:53;;;;;;;19.70;13.07;;;22.00;99.90;;;;;;4995274;28;20167;-79
2021/06/04 07:45:22;;;;;;;22.93;13.97;;;22.00;99.90;;;;;;4995382;28;20175;-81
2021/06/04 07:47:48;;;;;;;17.53;11.97;;;22.00;99.90;;;;;;4994512;28;20171;-80
2021/06/04 07:50:14;;;;;;;18.63;12.20;;;22.00;99.90;;;;;;4993994;28;20317;-80
2021/06/04 07:52:40;;;;;;;17.70;13.30;;;22.00;99.90;;;;;;4992291;28;20175;-79
2021/06/04 07:55:09;;;;;;;17.63;12.70;;;22.10;99.90;;;;;;4993968;28;20182;-79
2021/06/04 07:57:34;;;;;;;19.53;13.50;;;22.10;99.90;;;;;;4994305;28;20259;-80
2021/06/04 08:00:01;;;;;;;16.17;12.63;;;22.20;99.90;;;;;;4994366;28;20242;-80
2021/06/04 08:02:27;;;;;;;19.70;12.90;;;22.40;99.90;;;;;;4992653;28;20281;-82
2021/06/04 08:04:53;;;;;;;17.53;12.30;;;22.50;99.90;;;;;;4993918;28;20231;-79
2021/06/04 08:07:19;;;;;;;13.87;10.00;;;22.80;82.30;;;;;;4997614;28;20186;-79
2021/06/04 08:09:45;;;;;;;16.30;9.43;;;22.70;99.90;;;;;;4994467;28;20216;-81
2021/06/04 08:12:15;;;;;;;15.63;8.70;;;22.80;1.00;;;;;;4994110;28;20176;-82
2021/06/04 08:14:41;;;;;;;12.23;8.97;;;22.90;99.90;;;;;;4993974;28;20188;-82
2021/06/04 08:17:07;;;;;;;12.17;8.20;;;23.00;1.00;;;;;;4991001;28;20197;-80
2021/06/04 08:19:34;;;;;;;13.83;8.73;;;23.10;99.90;;;;;;5005238;28;20182;-81
2021/06/04 08:22:03;;;;;;;13.23;9.20;;;23.10;1.00;;;;;;4977375;28;20616;-80
2021/06/04 08:24:31;;;;;;;13.90;9.07;;;23.00;99.90;;;;;;4979781;28;20171;-77
2021/06/04 08:26:58;;;;;;;12.27;9.37;;;23.10;1.00;;;;;;4995315;28;20225;-79
2021/06/04 08:29:27;;;;;;;14.47;9.27;;;23.10;1.00;;;;;;4999865;28;20218;-79
2021/06/04 08:31:52;;;;;;;14.40;9.83;;;23.10;99.90;;;;;;5004144;28;20169;-78
2021/06/04 08:34:18;;;;;;;15.67;10.10;;;23.20;99.90;;;;;;4995524;28;20737;-79
2021/06/04 08:36:45;;;;;;;12.93;9.53;;;23.20;1.00;;;;;;4994395;28;20567;-81
2021/06/04 08:39:17;;;;;;;12.57;10.77;;;23.30;99.90;;;;;;4992622;28;20178;-79
2021/06/04 08:41:58;;;;;;;17.67;11.70;;;23.50;99.90;;;;;;4982794;28;20658;-79
2021/06/04 08:44:37;;;;;;;14.47;11.40;;;23.40;1.00;;;;;;4985233;28;20200;-79
2021/06/04 08:47:17;;;;;;;12.97;10.83;;;23.50;1.00;;;;;;4993208;28;20678;-80
2021/06/04 08:50:11;;;;;;;14.53;11.03;;;23.50;27.20;;;;;;4994672;28;20217;-79
2021/06/04 08:53:17;;;;;;;12.50;10.70;;;23.60;99.90;;;;;;5014144;28;20181;-80
2021/06/04 08:55:59;;;;;;;13.80;11.47;;;23.70;1.00;;;;;;4997899;28;20631;-79
2021/06/04 08:58:53;;;;;;;16.93;11.53;;;23.60;99.90;;;;;;4993049;28;20265;-79
2021/06/04 09:01:28;;;;;;;14.70;11.17;;;23.70;99.90;;;;;;4993387;28;20233;-79
2021/06/04 09:04:15;;;;;;;13.57;10.97;;;24.00;1.00;;;;;;4993180;28;20653;-81
2021/06/04 09:06:47;;;;;;;18.23;11.63;;;23.80;99.90;;;;;;4994249;28;20177;-79
2021/06/04 09:09:34;;;;;;;15.97;12.13;;;23.80;1.00;;;;;;4998529;28;20193;-80
2021/06/04 09:12:04;;;;;;;15.27;11.57;;;23.70;1.00;;;;;;5014322;28;20658;-78
2021/06/04 09:14:30;;;;;;;18.03;12.93;;;23.70;6.20;;;;;;5006781;28;20184;-81
2021/06/04 09:17:06;;;;;;;13.73;11.90;;;23.80;99.90;;;;;;5006101;28;20178;-81
2021/06/04 09:20:00;;;;;;;17.43;13.10;;;23.80;99.90;;;;;;4999253;28;20226;-80
2021/06/04 09:22:32;;;;;;;18.53;12.53;;;24.10;99.90;;;;;;4993661;28;20623;-81
2021/06/04 09:24:58;;;;;;;15.83;12.53;;;24.40;99.90;;;;;;5008506;28;20178;-82
2021/06/04 09:27:24;;;;;;;14.80;13.13;;;24.60;1.00;;;;;;4992831;28;20658;-80
2021/06/04 09:30:03;;;;;;;15.33;13.77;;;24.50;1.00;;;;;;4989426;28;20222;-80
2021/06/04 09:32:31;;;;;;;15.10;13.10;;;24.50;3.60;;;;;;4974669;28;20170;-80
2021/06/04 09:35:23;;;;;;;18.37;13.57;;;24.40;99.90;;;;;;4975001;28;20175;-81
2021/06/04 09:37:48;;;;;;;17.33;13.07;;;24.30;99.90;;;;;;4978084;28;20202;-80
2021/06/04 09:40:31;;;;;;;22.63;15.00;;;24.50;99.90;;;;;;4993515;28;20194;-81
2021/06/04 09:43:13;;;;;;;17.67;15.77;;;24.70;99.90;;;;;;4993485;28;20177;-80
2021/06/04 09:45:43;;;;;;;16.37;14.60;;;24.80;99.90;;;;;;4991654;28;20175;-82
2021/06/04 09:48:14;;;;;;;17.70;14.87;;;25.00;99.90;;;;;;4987515;28;20710;-83
2021/06/04 09:50:42;;;;;;;20.83;16.53;;;25.20;99.90;;;;;;4989808;28;20211;-81
2021/06/04 09:53:25;;;;;;;19.30;14.53;;;25.20;99.90;;;;;;4974434;28;20655;-82
2021/06/04 09:56:06;;;;;;;18.70;15.37;;;25.20;99.90;;;;;;4974664;28;20183;-81
2021/06/04 09:58:47;;;;;;;16.83;15.03;;;25.20;2.00;;;;;;4974581;28;20187;-81
2021/06/04 10:01:16;;;;;;;19.20;15.90;;;25.30;17.70;;;;;;4991642;28;20183;-81
2021/06/04 10:03:41;;;;;;;23.10;16.77;;;25.40;99.90;;;;;;4993439;28;20258;-83
2021/06/04 10:06:11;;;;;;;20.93;18.73;;;25.80;99.90;;;;;;4992096;28;20266;-83
2021/06/04 10:08:45;;;;;;;22.10;18.50;;;25.80;99.90;;;;;;4992740;28;20178;-82
2021/06/04 10:11:15;;;;;;;18.80;16.90;;;26.00;99.90;;;;;;4986477;28;20170;-82
2021/06/04 10:13:51;;;;;;;18.10;16.20;;;25.70;1.00;;;;;;4993790;28;20246;-82
2021/06/04 10:19:19;;;;;;;19.70;16.53;;;25.90;1.00;;;;;;4993829;28;20186;-81
2021/06/04 10:21:46;;;;;;;18.80;16.83;;;25.80;1.00;;;;;;4993148;28;20718;-82
2021/06/04 10:24:29;;;;;;;19.40;17.30;;;25.70;97.70;;;;;;4993211;28;20250;-83
2021/06/04 10:27:02;;;;;;;19.77;17.70;;;25.60;99.90;;;;;;4992062;28;20793;-82
2021/06/04 10:29:29;;;;;;;20.77;18.57;;;25.60;99.90;;;;;;4997159;28;20233;-81
2021/06/04 10:32:16;;;;;;;23.57;19.13;;;25.50;99.90;;;;;;4996999;28;20178;-82
2021/06/04 10:35:18;;;;;;;21.43;17.17;;;25.40;99.90;;;;;;4997197;28;20211;-81
2021/06/04 10:37:52;;;;;;;22.47;17.43;;;25.50;99.90;;;;;;4988474;28;20202;-82
2021/06/04 10:40:21;;;;;;;20.53;17.07;;;25.40;99.90;;;;;;4997201;28;20237;-82
2021/06/04 10:43:19;;;;;;;18.67;16.77;;;25.50;1.00;;;;;;4998536;28;20176;-82
2021/06/04 10:46:22;;;;;;;21.97;16.83;;;25.60;99.90;;;;;;4997081;28;20179;-82
2021/06/04 10:49:25;;;;;;;19.97;16.13;;;25.90;1.00;;;;;;4970871;28;20294;-80
2021/06/04 10:51:57;;;;;;;21.20;17.60;;;26.10;1.00;;;;;;4987706;28;20171;-81
2021/06/04 10:54:26;;;;;;;19.40;17.17;;;25.80;52.60;;;;;;4984021;28;20187;-85
2021/06/04 10:57:19;;;;;;;18.13;16.33;;;25.50;99.90;;;;;;5006753;28;20194;-79
2021/06/04 11:00:06;;;;;;;18.37;16.07;;;25.70;99.90;;;;;;4999836;28;20215;-81
2021/06/04 11:02:32;;;;;;;21.77;17.53;;;25.50;99.90;;;;;;4984315;28;20200;-82
2021/06/04 11:05:32;;;;;;;20.63;16.63;;;25.40;99.90;;;;;;5012629;28;20175;-79
2021/06/04 11:08:21;;;;;;;19.87;17.83;;;25.30;99.90;;;;;;4994612;28;20214;-81
2021/06/04 11:11:00;;;;;;;21.13;17.50;;;25.40;99.90;;;;;;4988350;28;20585;-82
2021/06/04 11:13:54;;;;;;;20.67;16.43;;;25.40;99.90;;;;;;5010183;28;20174;-81
2021/06/04 11:16:46;;;;;;;19.03;16.07;;;25.50;99.90;;;;;;4993638;28;20183;-80
2021/06/04 11:19:40;;;;;;;20.03;16.73;;;25.50;1.00;;;;;;4994775;28;20163;-81
2021/06/04 11:22:18;;;;;;;20.30;17.37;;;25.50;99.90;;;;;;4993389;28;20183;-78
2021/06/04 11:24:50;;;;;;;24.90;18.00;;;25.50;99.90;;;;;;4995923;28;20167;-78
2021/06/04 11:27:41;;;;;;;21.83;18.43;;;25.50;1.00;;;;;;4994560;28;20636;-80
2021/06/04 11:30:15;;;;;;;25.70;20.07;;;25.40;1.00;;;;;;4978467;28;20577;-79
2021/06/04 11:33:06;;;;;;;25.23;19.33;;;25.30;1.00;;;;;;4994759;28;20175;-80
2021/06/04 11:35:38;;;;;;;21.73;19.43;;;25.40;1.00;;;;;;4994708;28;20171;-80
2021/06/04 11:38:13;;;;;;;21.77;18.93;;;25.30;1.00;;;;;;4993712;28;20206;-83
2021/06/04 11:40:51;;;;;;;20.47;18.27;;;25.40;1.00;;;;;;4994742;28;20182;-80
2021/06/04 11:43:33;;;;;;;21.97;16.43;;;25.70;1.00;;;;;;4997930;28;20175;-80
2021/06/04 11:46:18;;;;;;;19.00;15.90;;;25.90;1.00;;;;;;4996316;28;20182;-81
2021/06/04 11:48:54;;;;;;;21.73;15.83;;;26.00;99.90;;;;;;5000507;28;20260;-81
2021/06/04 11:51:20;;;;;;;19.03;16.83;;;26.00;99.90;;;;;;5002751;28;20181;-80
2021/06/04 11:53:50;;;;;;;18.80;16.80;;;26.00;99.90;;;;;;4997972;28;20171;-80
2021/06/04 11:57:00;;;;;;;19.53;16.67;;;25.90;99.90;;;;;;4994841;28;20175;-81
2021/06/04 12:00:04;;;;;;;21.87;17.00;;;25.90;99.90;;;;;;4953759;28;20192;-79
2021/06/04 12:02:46;;;;;;;21.37;19.13;;;25.90;99.90;;;;;;4934670;28;20192;-79
2021/06/04 12:05:30;;;;;;;20.40;18.30;;;25.70;1.00;;;;;;5012044;28;20671;-81
2021/06/04 12:08:24;;;;;;;18.10;14.93;;;25.70;1.00;;;;;;5003002;28;20195;-82
2021/06/04 12:10:49;;;;;;;17.83;15.33;;;25.70;1.00;;;;;;5001497;28;20296;-80
2021/06/04 12:13:33;;;;;;;18.40;16.00;;;25.70;1.00;;;;;;4996975;28;20163;-80
2021/06/04 12:16:27;;;;;;;20.27;18.27;;;25.60;1.00;;;;;;5001526;28;20240;-80
2021/06/04 12:19:05;;;;;;;20.73;17.73;;;25.60;1.00;;;;;;4991063;28;20713;-80
2021/06/04 12:21:51;;;;;;;19.27;17.17;;;25.70;1.00;;;;;;4982885;28;20639;-81
2021/06/04 12:24:17;;;;;;;21.80;17.90;;;25.90;1.00;;;;;;4971286;28;20192;-80
2021/06/04 12:26:45;;;;;;;18.33;16.47;;;25.70;1.00;;;;;;4982215;28;20176;-80
2021/06/04 12:29:37;;;;;;;18.00;15.63;;;25.60;1.00;;;;;;4981215;28;20369;-78
2021/06/04 12:32:38;;;;;;;19.90;17.80;;;25.60;1.00;;;;;;4997181;28;20183;-81
2021/06/04 12:35:07;;;;;;;17.90;16.00;;;25.70;1.00;;;;;;4999784;28;20175;-80
2021/06/04 12:37:40;;;;;;;15.53;14.03;;;25.70;1.00;;;;;;5001318;28;20639;-81
2021/06/04 12:40:28;;;;;;;16.17;14.50;;;25.70;1.00;;;;;;5001078;28;20174;-81
2021/06/04 12:43:13;;;;;;;18.30;15.53;;;25.70;99.90;;;;;;5000761;28;20181;-81
2021/06/04 12:45:43;;;;;;;12.07;7.77;;;25.80;99.90;;;;;;5001008;28;20171;-80
2021/06/04 12:48:37;;;;;;;13.03;8.23;;;24.80;99.90;;;;;;5000357;28;20179;-79
2021/06/04 12:51:22;;;;;;;6.50;3.43;;;23.60;1.00;;;;;;4999490;28;20228;-79
2021/06/04 12:53:50;;;;;;;4.27;1.90;;;22.40;1.00;;;;;;4999770;28;20237;-79
2021/06/04 12:56:22;;;;;;;5.40;2.13;;;21.00;1.00;;;;;;5000105;28;20218;-79
2021/06/04 12:58:58;;;;;;;3.17;1.60;;;20.20;1.00;;;;;;5001164;28;20213;-80
2021/06/04 13:01:26;;;;;;;6.87;2.73;;;19.30;1.00;;;;;;5000094;28;20186;-77
2021/06/04 13:03:56;;;;;;;4.17;2.80;;;18.30;44.50;;;;;;5015838;28;20181;-77
2021/06/04 13:06:40;;;;;;;6.53;3.80;;;17.70;87.70;;;;;;5001298;28;20631;-80
2021/06/04 13:09:42;;;;;;;5.57;3.43;;;17.50;92.90;;;;;;4999510;28;20194;-78